Time;durP1;ratioP1;P1;durP2;ratioP2;P2;SDS_P1;SDS_P2;PMS_P1;PMS_P2;Temp;Humidity;BMP_temperature;BMP_pressure;BME280_temperature;BME280_humidity;BME280_pressure;Samples;Min_cycle;Max_cycle;Signal;HPM_P1;HPM_P2
2021/09/21 00:02:18;;;;;;;29.48;14.03;;;;;;;4.14;75.51;100986.08;2149798;81;20990;-76
2021/09/21 00:05:19;;;;;;;24.40;13.40;;;;;;;4.04;75.29;100988.94;2150549;82;21098;-75
2021/09/21 00:08:21;;;;;;;19.92;13.45;;;;;;;3.98;75.35;100988.88;2150032;82;21023;-78
2021/09/21 00:11:22;;;;;;;20.43;12.82;;;;;;;3.95;75.19;100989.56;2153101;82;21105;-76
2021/09/21 00:14:24;;;;;;;24.27;13.40;;;;;;;3.85;75.43;100990.64;2149221;82;21480;-76
2021/09/21 00:17:26;;;;;;;24.27;13.68;;;;;;;3.78;75.42;100982.34;2133615;82;21505;-76
2021/09/21 00:20:27;;;;;;;22.90;14.03;;;;;;;3.72;75.50;100974.88;2134652;82;21013;-77
2021/09/21 00:23:29;;;;;;;28.83;14.07;;;;;;;3.68;75.57;100973.86;2126643;82;20957;-76
2021/09/21 00:26:31;;;;;;;36.48;17.12;;;;;;;3.64;75.71;100974.54;2131169;82;21037;-76
2021/09/21 00:29:32;;;;;;;28.38;14.68;;;;;;;3.61;75.70;100974.75;2130588;82;21019;-76
2021/09/21 00:32:34;;;;;;;29.67;14.98;;;;;;;3.54;75.69;100977.39;2129748;81;21091;-76
2021/09/21 00:35:36;;;;;;;30.05;14.73;;;;;;;3.49;75.82;100976.39;2133261;81;20974;-76
2021/09/21 00:38:37;;;;;;;32.23;15.80;;;;;;;3.45;75.80;100972.27;2129011;81;20998;-76
2021/09/21 00:41:40;;;;;;;28.67;14.33;;;;;;;3.40;75.86;100965.16;2126012;82;21392;-77
2021/09/21 00:44:42;;;;;;;29.07;14.53;;;;;;;3.38;75.94;100974.94;2130454;81;21076;-76
2021/09/21 00:47:45;;;;;;;38.05;13.93;;;;;;;3.36;76.08;100979.44;2128281;82;20982;-76
2021/09/21 00:50:48;;;;;;;46.48;15.40;;;;;;;3.34;76.24;100982.63;2131631;82;21012;-76
2021/09/21 00:53:53;;;;;;;36.95;14.50;;;;;;;3.32;76.45;100985.36;2130237;81;21024;-75
2021/09/21 00:56:56;;;;;;;51.83;15.90;;;;;;;3.27;76.73;100982.66;2127257;82;21010;-76
2021/09/21 00:59:58;;;;;;;37.58;13.85;;;;;;;3.11;76.63;100986.25;2125974;82;21557;-76
2021/09/21 01:02:59;;;;;;;33.00;13.75;;;;;;;2.91;76.86;100990.13;2129344;82;21039;-77
2021/09/21 01:06:01;;;;;;;49.65;14.85;;;;;;;2.60;77.13;100990.36;2127486;81;21050;-76
2021/09/21 01:09:04;;;;;;;215.60;17.27;;;;;;;2.43;77.33;100991.39;2130469;81;21100;-77
2021/09/21 01:12:05;;;;;;;141.07;16.35;;;;;;;2.39;77.53;100990.73;2125277;82;20988;-76
2021/09/21 01:15:09;;;;;;;102.72;15.38;;;;;;;2.35;77.81;100992.31;2125333;82;21010;-76
2021/09/21 01:18:10;;;;;;;58.85;16.48;;;;;;;2.38;78.21;101005.22;2137655;82;21063;-76
2021/09/21 01:21:13;;;;;;;35.48;16.40;;;;;;;2.48;78.66;101001.12;2146043;82;21004;-76
2021/09/21 01:24:17;;;;;;;91.97;18.67;;;;;;;2.60;78.85;101003.46;2137577;82;21383;-77
2021/09/21 01:27:20;;;;;;;48.42;15.68;;;;;;;2.66;78.75;100998.67;1977479;84;56852;-76
2021/09/21 01:30:21;;;;;;;139.22;16.80;;;;;;;2.72;78.73;100997.45;1989008;89;21532;-75
2021/09/21 01:33:23;;;;;;;137.43;17.07;;;;;;;2.74;78.65;101006.55;2033226;87;22349;-74
2021/09/21 01:36:27;;;;;;;101.75;15.60;;;;;;;2.76;78.82;100997.66;2031565;87;21051;-74
2021/09/21 01:39:28;;;;;;;73.75;15.98;;;;;;;2.80;78.95;100999.61;2034260;87;21003;-74
2021/09/21 01:42:30;;;;;;;114.92;15.28;;;;;;;2.86;79.21;101001.37;2032550;87;21030;-75
2021/09/21 01:45:31;;;;;;;137.12;16.40;;;;;;;2.91;79.20;100998.47;2035052;87;21059;-74
2021/09/21 01:48:33;;;;;;;36.00;12.90;;;;;;;2.92;78.92;101004.08;2033165;87;21156;-75
2021/09/21 01:51:37;;;;;;;28.12;14.78;;;;;;;2.83;78.83;101003.34;2070006;84;20973;-74
2021/09/21 02:00:58;;;;;;;20.10;12.25;;;;;;;2.86;79.11;101001.84;2108780;84;21494;-76
2021/09/21 02:04:04;;;;;;;21.95;13.80;;;;;;;2.86;79.22;101012.33;2113058;84;21035;-76
2021/09/21 02:07:03;;;;;;;20.12;11.80;;;;;;;2.90;79.33;101008.56;2109596;84;21012;-75
2021/09/21 02:10:06;;;;;;;19.30;12.43;;;;;;;2.90;79.34;101015.98;2111614;84;21042;-77
2021/09/21 02:13:08;;;;;;;19.10;14.13;;;;;;;2.81;79.27;101014.39;2107639;83;21012;-76
2021/09/21 02:16:09;;;;;;;19.57;12.70;;;;;;;2.87;79.59;101013.55;2108528;84;21058;-74
2021/09/21 02:19:11;;;;;;;19.48;12.80;;;;;;;2.99;79.71;101015.88;2111029;84;21055;-76
2021/09/21 02:22:12;;;;;;;25.88;15.20;;;;;;;3.07;79.69;101014.06;2110394;84;20989;-75
2021/09/21 02:25:14;;;;;;;20.80;13.60;;;;;;;3.17;79.83;101014.34;2113987;81;21571;-76
2021/09/21 02:28:16;;;;;;;23.98;15.38;;;;;;;3.28;79.92;101008.78;2140528;81;20986;-76
2021/09/21 02:31:19;;;;;;;21.33;12.68;;;;;;;3.39;80.05;100992.36;2142869;81;21512;-76
2021/09/21 02:34:20;;;;;;;20.77;14.58;;;;;;;3.47;80.05;100993.17;2140882;81;21090;-76
2021/09/21 02:37:22;;;;;;;26.57;16.80;;;;;;;3.53;80.07;100986.21;2141908;81;21065;-76
2021/09/21 02:40:26;;;;;;;27.15;18.80;;;;;;;3.58;80.05;100992.84;2145179;81;20979;-76
2021/09/21 02:43:27;;;;;;;29.50;19.70;;;;;;;3.63;79.93;101003.50;2146566;81;21043;-76
2021/09/21 02:46:29;;;;;;;31.73;20.40;;;;;;;3.65;79.92;100995.89;2144057;81;21076;-76
2021/09/21 02:49:33;;;;;;;26.10;18.15;;;;;;;3.69;79.96;100992.59;2145149;81;20987;-76
2021/09/21 02:52:36;;;;;;;24.65;17.35;;;;;;;3.71;79.86;100995.96;2144147;81;21022;-76
2021/09/21 02:55:38;;;;;;;24.57;17.10;;;;;;;3.70;79.60;100987.25;2144741;81;21069;-76
2021/09/21 02:58:39;;;;;;;27.85;17.35;;;;;;;3.67;79.47;100982.69;2142455;81;21090;-76
2021/09/21 03:01:41;;;;;;;23.75;16.25;;;;;;;3.66;79.42;100982.30;2145550;81;21469;-76
2021/09/21 03:04:52;;;;;;;22.62;15.63;;;;;;;3.63;79.22;100985.13;2140334;81;21032;-76
2021/09/21 03:07:57;;;;;;;32.80;15.40;;;;;;;3.57;79.09;100975.87;2145664;81;21062;-76
2021/09/21 03:11:17;;;;;;;24.05;14.38;;;;;;;3.52;78.88;100981.88;2138494;81;21553;-76
2021/09/21 03:17:08;;;;;;;21.68;14.28;;;;;;;3.43;79.00;100974.14;2140662;81;21062;-76
2021/09/21 03:20:09;;;;;;;21.12;13.25;;;;;;;3.38;78.64;100981.50;2143344;81;21133;-75
2021/09/21 03:23:11;;;;;;;19.10;13.00;;;;;;;3.29;78.68;100992.56;2144363;81;21497;-75
2021/09/21 03:26:12;;;;;;;19.12;13.20;;;;;;;3.26;78.77;100999.32;2136637;81;21031;-76
2021/09/21 03:29:14;;;;;;;22.80;13.10;;;;;;;3.20;78.85;100993.16;2130662;82;21018;-76
2021/09/21 03:32:16;;;;;;;22.32;13.10;;;;;;;3.16;78.91;100994.31;2128633;82;21008;-75
2021/09/21 03:35:17;;;;;;;20.95;14.07;;;;;;;3.15;78.74;100992.13;2125496;82;20982;-76
2021/09/21 03:38:18;;;;;;;40.00;14.75;;;;;;;3.09;78.80;100994.67;2131148;82;21057;-76
2021/09/21 03:41:20;;;;;;;31.40;14.53;;;;;;;3.01;78.98;101000.87;2127903;82;20980;-75
2021/09/21 03:44:22;;;;;;;39.92;15.83;;;;;;;2.98;79.24;101006.31;2126274;82;21591;-75
2021/09/21 03:47:24;;;;;;;29.70;16.35;;;;;;;2.96;79.34;101008.20;2128315;82;21029;-76
2021/09/21 03:50:27;;;;;;;42.20;16.95;;;;;;;2.96;79.53;101017.38;2128917;82;21050;-75
2021/09/21 03:53:28;;;;;;;55.15;17.35;;;;;;;2.96;79.50;101025.25;2130771;82;21462;-75
2021/09/21 03:56:30;;;;;;;45.92;21.07;;;;;;;2.89;79.37;101032.63;2127440;82;20971;-76
2021/09/21 03:59:32;;;;;;;55.60;18.12;;;;;;;2.90;79.77;101030.84;2126506;82;20974;-75
2021/09/21 04:02:33;;;;;;;51.10;17.32;;;;;;;2.93;79.98;101033.30;2128809;82;21463;-75
2021/09/21 04:05:35;;;;;;;69.40;18.45;;;;;;;2.94;79.98;101034.98;2127831;82;21078;-74
2021/09/21 04:08:37;;;;;;;47.05;16.30;;;;;;;2.92;79.87;101042.92;2132834;82;20997;-76
2021/09/21 04:11:38;;;;;;;60.33;17.40;;;;;;;2.95;80.11;101043.68;2125418;82;21544;-75
2021/09/21 04:14:40;;;;;;;36.45;15.70;;;;;;;2.92;80.21;101047.33;2123608;82;21492;-75
2021/09/21 04:17:41;;;;;;;26.52;15.15;;;;;;;2.97;80.40;101044.44;2127958;82;21054;-75
2021/09/21 04:20:43;;;;;;;31.82;16.25;;;;;;;3.01;80.55;101034.95;2126272;82;20968;-73
2021/09/21 04:23:44;;;;;;;58.63;18.48;;;;;;;3.09;80.70;101037.11;2126245;82;21541;-73
2021/09/21 04:26:46;;;;;;;41.68;15.88;;;;;;;3.14;80.79;101041.13;2125725;82;21032;-75
2021/09/21 04:29:50;;;;;;;33.00;18.50;;;;;;;3.21;80.82;101045.98;2121450;82;21051;-75
2021/09/21 04:32:52;;;;;;;43.50;17.75;;;;;;;3.25;80.75;101053.56;2118823;82;20984;-75
2021/09/21 04:35:53;;;;;;;50.38;18.90;;;;;;;3.29;80.68;101043.23;2122742;82;21039;-76
2021/09/21 04:38:55;;;;;;;52.08;15.65;;;;;;;3.30;80.57;101044.11;2118941;82;20953;-81
2021/09/21 04:41:57;;;;;;;24.15;13.83;;;;;;;3.32;80.69;101040.89;2127173;82;20980;-72
2021/09/21 04:44:58;;;;;;;43.50;14.20;;;;;;;3.35;80.73;101045.94;2121847;82;22146;-76
2021/09/21 04:48:00;;;;;;;41.65;13.85;;;;;;;3.38;80.80;101047.09;2121213;82;21094;-74
2021/09/21 04:51:03;;;;;;;41.28;13.95;;;;;;;3.41;80.96;101041.64;2121448;82;21089;-74
2021/09/21 04:54:05;;;;;;;41.85;13.10;;;;;;;3.48;81.09;101053.41;2119277;82;21010;-77
2021/09/21 04:57:07;;;;;;;22.25;12.20;;;;;;;3.52;81.17;101053.61;2118321;82;21515;-75
2021/09/21 05:00:09;;;;;;;33.00;12.53;;;;;;;3.62;81.30;101066.96;2120530;82;21047;-76
2021/09/21 05:03:11;;;;;;;22.58;11.63;;;;;;;3.69;81.37;101056.90;2122207;82;21034;-76
2021/09/21 05:06:12;;;;;;;24.67;12.13;;;;;;;3.76;81.44;101064.77;2122620;82;21032;-76
2021/09/21 05:09:15;;;;;;;25.30;12.10;;;;;;;3.83;81.50;101059.50;2118546;82;21035;-79
2021/09/21 05:12:16;;;;;;;30.52;11.70;;;;;;;3.89;81.54;101073.53;2122580;82;21038;-79
2021/09/21 05:15:18;;;;;;;25.27;14.83;;;;;;;3.97;81.71;101059.42;2117297;82;21067;-79
2021/09/21 05:18:19;;;;;;;39.92;11.78;;;;;;;4.09;81.84;101064.81;2123444;82;21029;-79
2021/09/21 05:21:21;;;;;;;27.67;10.82;;;;;;;4.21;81.88;101070.55;2118454;82;21553;-74
2021/09/21 05:24:22;;;;;;;23.65;12.58;;;;;;;4.34;81.92;101067.48;2124010;82;21091;-85
2021/09/21 05:27:25;;;;;;;14.20;10.45;;;;;;;4.47;81.96;101062.22;2124558;82;20987;-81
2021/09/21 05:30:26;;;;;;;19.17;11.55;;;;;;;4.63;82.02;101065.48;2122856;82;21023;-81
2021/09/21 05:33:28;;;;;;;17.92;11.50;;;;;;;4.80;81.94;101064.80;2124165;82;20971;-84
2021/09/21 05:36:30;;;;;;;24.25;12.85;;;;;;;4.92;81.92;101064.77;2126996;82;21128;-81
2021/09/21 05:39:31;;;;;;;17.77;12.53;;;;;;;5.09;81.95;101061.44;2124458;82;22562;-81
2021/09/21 05:42:36;;;;;;;18.32;12.55;;;;;;;5.27;81.94;101072.47;2125667;82;21090;-81
2021/09/21 05:45:37;;;;;;;22.87;13.28;;;;;;;5.50;82.02;101072.13;2129927;82;21794;-81
2021/09/21 05:48:39;;;;;;;18.60;12.88;;;;;;;5.75;82.02;101076.46;2130898;82;21054;-81
2021/09/21 05:51:40;;;;;;;20.55;13.55;;;;;;;5.98;81.94;101076.11;2126893;82;20956;-81
2021/09/21 05:54:42;;;;;;;17.25;12.78;;;;;;;6.33;82.34;101076.09;2124005;82;21612;-80
2021/09/21 05:57:44;;;;;;;17.65;12.82;;;;;;;6.63;82.02;101076.88;2124224;82;20990;-81
2021/09/21 06:00:45;;;;;;;16.23;11.43;;;;;;;6.91;81.98;101076.90;2120272;82;21589;-81
2021/09/21 06:03:47;;;;;;;18.45;10.68;;;;;;;7.24;81.96;101075.70;2124964;82;21505;-81
2021/09/21 06:06:48;;;;;;;19.32;12.50;;;;;;;7.69;82.08;101072.48;2123203;82;21032;-82
2021/09/21 06:09:50;;;;;;;16.30;11.60;;;;;;;8.23;81.85;101079.47;2130529;82;21073;-81
2021/09/21 06:12:52;;;;;;;16.27;12.40;;;;;;;8.67;81.35;101082.85;2123744;82;21012;-80
2021/09/21 06:15:53;;;;;;;16.02;12.50;;;;;;;9.02;80.74;101086.08;2131226;82;21095;-80
2021/09/21 06:18:56;;;;;;;18.62;13.10;;;;;;;9.34;80.73;101073.48;2124306;82;21007;-80
2021/09/21 06:21:57;;;;;;;21.27;14.05;;;;;;;9.79;80.25;101080.13;2124122;82;21493;-77
2021/09/21 06:24:58;;;;;;;20.77;13.88;;;;;;;10.24;79.95;101079.56;2119689;82;21273;-80
2021/09/21 06:28:00;;;;;;;16.17;13.05;;;;;;;10.49;79.36;101087.45;2119571;82;21060;-77
2021/09/21 06:31:02;;;;;;;17.27;11.85;;;;;;;10.73;78.86;101089.16;2126081;82;21064;-78
2021/09/21 06:34:04;;;;;;;21.15;13.25;;;;;;;10.86;78.50;101081.36;2119080;82;21019;-77
2021/09/21 06:37:05;;;;;;;18.52;13.08;;;;;;;11.01;78.39;101077.26;2119631;82;21017;-78
2021/09/21 06:40:09;;;;;;;20.23;12.40;;;;;;;11.32;78.21;101084.45;2123395;82;21035;-78
2021/09/21 06:43:10;;;;;;;16.02;12.93;;;;;;;11.77;78.20;101082.75;2119168;82;21074;-78
2021/09/21 06:46:12;;;;;;;17.73;11.95;;;;;;;12.27;77.86;101088.89;2117886;82;21097;-77
2021/09/21 06:49:14;;;;;;;14.85;12.00;;;;;;;12.52;77.00;101090.74;2118442;82;21498;-78
2021/09/21 06:52:15;;;;;;;16.25;12.35;;;;;;;12.51;76.15;101085.59;2122023;82;20965;-78
2021/09/21 06:55:17;;;;;;;20.20;13.00;;;;;;;12.72;76.26;101094.53;2124016;82;21046;-78
2021/09/21 06:58:18;;;;;;;16.77;13.00;;;;;;;12.68;75.51;101086.03;2121395;82;20980;-78
2021/09/21 07:01:22;;;;;;;16.77;13.00;;;;;;;12.81;75.92;101102.08;2117301;82;21074;-78
2021/09/21 07:04:23;;;;;;;17.62;12.98;;;;;;;12.89;75.69;101102.95;2119697;82;21042;-78
2021/09/21 07:07:25;;;;;;;17.40;12.63;;;;;;;12.95;75.25;101097.02;2117708;82;21093;-77
2021/09/21 07:10:26;;;;;;;20.08;13.30;;;;;;;13.04;74.98;101095.73;2121625;82;20982;-78
2021/09/21 07:13:28;;;;;;;15.88;13.03;;;;;;;13.20;74.83;101095.78;2121909;82;21031;-77
2021/09/21 07:16:30;;;;;;;16.02;12.73;;;;;;;13.47;74.72;101098.77;2119533;82;21484;-78
2021/09/21 07:19:31;;;;;;;18.70;11.83;;;;;;;13.86;74.66;101096.36;2120876;82;21042;-82
2021/09/21 07:22:33;;;;;;;16.67;12.82;;;;;;;14.47;74.69;101098.70;2119408;82;20955;-79
2021/09/21 07:25:35;;;;;;;17.07;12.15;;;;;;;14.75;73.10;101104.06;2123323;82;20988;-76
2021/09/21 07:28:36;;;;;;;15.20;11.88;;;;;;;14.40;71.79;101109.73;2107651;82;20961;-81
2021/09/21 07:31:38;;;;;;;20.62;12.82;;;;;;;14.04;71.91;101121.55;2110114;83;21024;-75
2021/09/21 07:34:39;;;;;;;17.20;12.78;;;;;;;13.80;72.66;101115.70;2106916;82;21067;-81
2021/09/21 07:37:41;;;;;;;19.05;12.50;;;;;;;13.67;72.44;101125.98;2115198;84;21671;-80
2021/09/21 07:40:42;;;;;;;20.12;13.18;;;;;;;13.56;71.89;101126.28;2113081;84;21063;-81
2021/09/21 07:43:45;;;;;;;15.93;13.25;;;;;;;13.35;72.35;101130.22;2112039;84;21022;-80
2021/09/21 07:46:46;;;;;;;18.15;13.78;;;;;;;13.32;72.53;101137.67;2108925;84;21024;-81
2021/09/21 07:49:48;;;;;;;21.95;14.33;;;;;;;13.14;72.12;101148.39;2107379;84;21047;-80
2021/09/21 07:52:49;;;;;;;21.97;15.10;;;;;;;13.42;73.40;101131.23;2107532;84;21051;-80
2021/09/21 07:55:51;;;;;;;20.27;13.88;;;;;;;13.92;72.96;101136.22;2107275;84;21051;-80
2021/09/21 07:58:52;;;;;;;18.15;12.43;;;;;;;14.23;72.63;101133.76;2110498;84;21910;-80
2021/09/21 08:01:54;;;;;;;15.18;11.65;;;;;;;14.31;71.70;101140.44;2110580;84;22476;-80
2021/09/21 08:04:56;;;;;;;15.75;11.55;;;;;;;14.14;71.38;101140.09;2110890;84;21012;-80
2021/09/21 08:07:57;;;;;;;16.07;11.53;;;;;;;13.94;71.19;101140.05;2110397;84;21027;-81
2021/09/21 08:11:02;;;;;;;19.00;11.95;;;;;;;13.67;71.20;101157.48;2113500;83;20996;-83
2021/09/21 08:14:05;;;;;;;13.83;11.83;;;;;;;13.56;71.58;101155.62;2111505;84;21544;-81
2021/09/21 08:17:07;;;;;;;17.02;12.10;;;;;;;13.50;71.72;101152.27;2113914;84;21089;-80
2021/09/21 08:20:11;;;;;;;17.70;12.20;;;;;;;13.30;71.55;101165.84;2111802;84;21459;-80
2021/09/21 08:23:12;;;;;;;16.07;11.33;;;;;;;13.16;72.02;101159.23;2111341;84;21086;-80
2021/09/21 08:26:14;;;;;;;16.97;11.28;;;;;;;12.99;71.96;101165.47;2114610;84;21083;-80
2021/09/21 08:29:15;;;;;;;14.98;11.30;;;;;;;12.80;72.19;101177.16;2119829;82;21082;-80
2021/09/21 08:32:17;;;;;;;18.15;11.20;;;;;;;12.68;72.32;101180.56;2118600;82;21047;-80
2021/09/21 08:35:18;;;;;;;19.80;11.97;;;;;;;12.55;72.60;101178.78;2121687;82;21046;-80
2021/09/21 08:38:20;;;;;;;23.95;11.45;;;;;;;12.31;72.50;101183.41;2120668;82;21113;-81
2021/09/21 08:41:22;;;;;;;21.37;12.82;;;;;;;12.10;72.84;101185.85;2120717;82;21012;-82
2021/09/21 08:44:23;;;;;;;16.15;10.95;;;;;;;11.96;73.52;101184.20;2121138;82;21042;-80
2021/09/21 08:47:25;;;;;;;14.40;11.15;;;;;;;11.81;73.55;101170.55;2119992;82;20978;-78
2021/09/21 08:50:27;;;;;;;13.68;10.23;;;;;;;11.80;73.96;101156.93;2120289;82;21047;-77
2021/09/21 08:53:28;;;;;;;13.75;10.40;;;;;;;11.82;74.15;101152.28;2116523;82;21043;-78
2021/09/21 08:56:30;;;;;;;14.73;12.07;;;;;;;11.80;74.31;101147.62;2121206;82;21589;-78
2021/09/21 08:59:35;;;;;;;18.05;13.18;;;;;;;11.85;75.00;101154.20;2122053;82;21102;-79
2021/09/21 09:02:37;;;;;;;17.87;12.43;;;;;;;11.90;75.24;101161.70;2124459;82;21095;-78
2021/09/21 09:05:50;;;;;;;21.57;12.78;;;;;;;11.95;75.24;101162.09;2123242;82;21608;-78
2021/09/21 09:08:52;;;;;;;17.98;12.18;;;;;;;12.09;75.33;101158.92;2122144;82;21082;-79
2021/09/21 09:11:56;;;;;;;17.75;12.35;;;;;;;12.26;75.74;101167.89;2124467;82;20984;-80
2021/09/21 09:14:59;;;;;;;17.77;10.55;;;;;;;12.37;75.52;101166.00;2121445;82;21062;-80
2021/09/21 09:18:05;;;;;;;15.60;9.80;;;;;;;12.45;75.48;101171.40;2123762;82;21051;-80
2021/09/21 09:21:07;;;;;;;13.13;10.10;;;;;;;12.56;75.40;101164.00;2119886;82;21010;-79
2021/09/21 09:24:10;;;;;;;13.78;10.20;;;;;;;12.71;75.44;101162.94;2122119;82;21503;-79
2021/09/21 09:27:13;;;;;;;14.13;10.35;;;;;;;12.88;75.50;101166.55;2121951;82;21024;-79
2021/09/21 09:30:22;;;;;;;10.58;8.73;;;;;;;13.06;75.39;101165.66;2123446;82;20952;-79
2021/09/21 09:33:23;;;;;;;13.65;8.33;;;;;;;13.19;75.41;101165.58;2125956;82;21479;-79
2021/09/21 09:36:25;;;;;;;11.20;8.23;;;;;;;13.43;75.18;101158.25;2119107;82;21035;-79
2021/09/21 09:39:30;;;;;;;10.95;7.58;;;;;;;13.70;74.76;101157.67;2123768;82;21030;-79
2021/09/21 09:42:34;;;;;;;12.53;7.67;;;;;;;13.83;74.20;101167.38;2119161;82;20980;-79
2021/09/21 09:45:45;;;;;;;12.58;6.85;;;;;;;13.93;73.63;101163.23;2119799;82;21075;-80
2021/09/21 09:48:52;;;;;;;11.80;7.25;;;;;;;13.95;72.96;101173.75;2123363;82;22549;-80
2021/09/21 09:51:57;;;;;;;10.13;7.17;;;;;;;14.00;72.78;101167.43;2116899;82;21954;-80
2021/09/21 09:54:58;;;;;;;9.78;7.35;;;;;;;13.98;72.63;101167.58;2103057;82;20994;-80
2021/09/21 09:58:02;;;;;;;11.20;7.33;;;;;;;14.04;72.53;101175.43;2119517;82;21070;-81
2021/09/21 10:01:04;;;;;;;8.95;7.37;;;;;;;14.05;71.99;101170.42;2120230;82;21015;-80
2021/09/21 10:04:05;;;;;;;10.32;7.55;;;;;;;14.07;72.24;101165.25;2118855;82;21522;-80
2021/09/21 10:07:08;;;;;;;9.73;7.78;;;;;;;14.16;71.42;101166.10;2117560;82;21011;-80
2021/09/21 10:10:10;;;;;;;10.30;8.05;;;;;;;14.13;71.09;101160.62;2123204;82;21034;-79
2021/09/21 10:13:15;;;;;;;11.93;8.85;;;;;;;14.16;71.12;101171.44;2117897;82;21130;-79
2021/09/21 10:16:17;;;;;;;10.82;9.18;;;;;;;14.10;70.81;101162.76;2123425;82;21043;-74
2021/09/21 10:19:22;;;;;;;14.78;8.23;;;;;;;14.03;71.14;101163.09;2103469;82;21711;-77
2021/09/21 10:22:38;;;;;;;12.18;9.03;;;;;;;14.02;71.21;101165.41;2122172;82;21047;-76
2021/09/21 10:25:41;;;;;;;10.30;8.18;;;;;;;14.09;71.44;101163.77;2118651;82;21428;-77
2021/09/21 10:28:45;;;;;;;12.68;9.58;;;;;;;14.15;71.09;101163.11;2121152;82;21030;-77
2021/09/21 10:31:57;;;;;;;11.83;9.10;;;;;;;14.09;70.83;101157.09;2120615;82;21638;-75
2021/09/21 10:35:04;;;;;;;16.50;9.05;;;;;;;14.01;70.66;101150.41;2117360;82;21043;-76
2021/09/21 10:38:11;;;;;;;13.95;8.60;;;;;;;14.06;70.86;101150.76;2118148;82;21332;-78
2021/09/21 10:41:12;;;;;;;11.90;8.48;;;;;;;14.13;70.64;101150.42;2119255;82;21043;-77
2021/09/21 10:44:15;;;;;;;10.45;9.35;;;;;;;14.18;70.26;101159.28;2119293;82;21062;-81
2021/09/21 10:47:29;;;;;;;13.30;9.93;;;;;;;14.21;70.31;101152.27;2120778;82;21121;-78
2021/09/21 10:50:37;;;;;;;11.25;8.75;;;;;;;14.19;70.25;101149.78;2120544;82;21044;-85
2021/09/21 10:53:40;;;;;;;13.25;9.48;;;;;;;14.20;70.01;101152.78;2120363;82;21047;-81
2021/09/21 10:56:42;;;;;;;14.40;10.68;;;;;;;14.33;70.36;101156.28;2120994;82;21067;-80
2021/09/21 11:00:00;;;;;;;15.55;10.75;;;;;;;14.38;69.92;101151.28;2121638;82;22214;-81
2021/09/21 11:03:03;;;;;;;15.03;11.30;;;;;;;14.43;70.28;101154.29;2120475;82;21075;-83
2021/09/21 11:06:05;;;;;;;15.38;11.93;;;;;;;14.47;69.79;101154.30;2121915;82;21090;-81
2021/09/21 11:09:07;;;;;;;18.20;11.15;;;;;;;14.52;69.76;101154.64;2123463;82;21102;-81
2021/09/21 11:12:11;;;;;;;13.03;10.18;;;;;;;14.55;69.99;101149.47;2118843;82;21007;-82
2021/09/21 11:15:15;;;;;;;13.25;9.75;;;;;;;14.67;69.28;101160.64;2121165;82;21506;-81
2021/09/21 11:18:19;;;;;;;11.15;7.60;;;;;;;14.70;69.22;101159.00;2120123;82;21576;-81
2021/09/21 11:21:20;;;;;;;12.05;7.40;;;;;;;14.74;68.43;101169.16;2114785;82;21035;-82
2021/09/21 11:24:25;;;;;;;8.73;6.97;;;;;;;14.77;67.85;101161.31;2120205;82;22067;-81
2021/09/21 11:27:27;;;;;;;9.05;6.12;;;;;;;14.89;67.65;101162.63;2121876;82;21109;-84
2021/09/21 11:30:29;;;;;;;9.20;6.87;;;;;;;14.97;67.18;101163.95;2132129;82;21538;-81
2021/09/21 11:33:35;;;;;;;8.05;6.17;;;;;;;15.01;67.39;101164.47;2135487;82;21081;-82
2021/09/21 11:36:39;;;;;;;13.53;6.83;;;;;;;15.02;66.92;101166.13;2133630;82;21538;-82
2021/09/21 11:39:40;;;;;;;9.93;8.20;;;;;;;14.99;66.61;101158.45;2136607;82;21612;-83
2021/09/21 11:42:42;;;;;;;10.28;7.37;;;;;;;15.00;66.68;101161.44;2133785;81;21613;-82
2021/09/21 11:45:47;;;;;;;10.20;6.92;;;;;;;14.98;66.95;101158.95;2134550;82;21720;-82
2021/09/21 11:48:54;;;;;;;12.10;7.45;;;;;;;15.07;66.87;101160.27;2138037;81;21035;-82
2021/09/21 11:51:56;;;;;;;10.70;7.50;;;;;;;15.10;66.66;101154.08;2133031;82;21004;-82
2021/09/21 11:54:57;;;;;;;8.05;6.78;;;;;;;15.11;66.10;101155.73;2132230;82;21018;-82
2021/09/21 11:58:00;;;;;;;11.53;8.00;;;;;;;15.08;66.31;101161.42;2133546;81;21467;-84
2021/09/21 12:01:08;;;;;;;10.48;8.08;;;;;;;15.14;66.33;101158.06;2129462;82;21767;-82
2021/09/21 12:04:10;;;;;;;8.55;7.67;;;;;;;15.15;66.26;101163.76;2129062;82;21015;-82
2021/09/21 12:07:13;;;;;;;8.05;7.25;;;;;;;15.25;66.51;101163.04;2132771;82;20954;-83
2021/09/21 12:10:16;;;;;;;10.82;7.58;;;;;;;15.45;66.71;101162.64;2135363;82;20991;-84
2021/09/21 12:13:21;;;;;;;10.88;7.60;;;;;;;15.58;66.25;101170.13;2131647;82;21626;-87
2021/09/21 12:16:26;;;;;;;10.78;7.50;;;;;;;15.68;65.75;101162.73;2133377;81;21022;-82
2021/09/21 12:19:28;;;;;;;9.25;7.12;;;;;;;15.67;65.05;101163.22;2137838;82;20956;-82
2021/09/21 12:22:29;;;;;;;10.63;7.22;;;;;;;15.65;65.51;101160.38;2132607;82;21078;-83
2021/09/21 12:25:35;;;;;;;7.87;6.55;;;;;;;15.61;65.22;101160.41;2133536;82;21022;-82
2021/09/21 12:28:41;;;;;;;9.95;6.37;;;;;;;15.60;64.96;101154.75;2115811;82;20980;-82
2021/09/21 12:31:44;;;;;;;10.05;6.65;;;;;;;15.61;65.20;101159.08;2075675;84;21066;-85
2021/09/21 12:34:46;;;;;;;10.65;6.25;;;;;;;15.64;64.95;101158.22;2080767;84;21015;-82
2021/09/21 12:37:53;;;;;;;7.70;6.90;;;;;;;15.59;64.22;101155.22;2078811;84;21032;-82
2021/09/21 12:41:05;;;;;;;8.98;6.80;;;;;;;15.51;64.39;101156.59;2080066;84;21171;-82
2021/09/21 12:44:10;;;;;;;7.92;6.53;;;;;;;15.49;64.25;101153.80;2060316;84;21043;-87
2021/09/21 12:47:12;;;;;;;7.45;6.05;;;;;;;15.43;64.56;101157.99;2079991;84;21058;-83
2021/09/21 12:50:20;;;;;;;10.18;6.03;;;;;;;15.36;64.33;101151.66;2079819;83;20998;-87
2021/09/21 12:53:22;;;;;;;8.08;6.17;;;;;;;15.18;63.88;101144.70;2079054;84;21046;-85
2021/09/21 12:56:24;;;;;;;7.85;6.30;;;;;;;15.12;64.30;101150.73;2079061;84;20996;-82
2021/09/21 12:59:29;;;;;;;7.80;6.20;;;;;;;15.06;63.79;101143.38;2083035;84;21570;-82
2021/09/21 13:02:30;;;;;;;7.80;5.40;;;;;;;15.00;64.22;101148.08;2080910;84;21058;-82
2021/09/21 13:05:35;;;;;;;10.53;6.67;;;;;;;15.04;64.24;101147.26;2082782;84;21038;-82
2021/09/21 13:08:38;;;;;;;11.53;6.28;;;;;;;14.98;64.10;101132.73;2080347;84;21152;-82
2021/09/21 13:11:40;;;;;;;8.18;6.60;;;;;;;14.96;64.19;101128.06;2061362;84;21837;-82
2021/09/21 13:14:42;;;;;;;7.92;6.65;;;;;;;14.94;64.21;101120.70;2080579;84;21786;-76
2021/09/21 13:17:43;;;;;;;9.43;6.90;;;;;;;14.94;63.89;101113.52;2079987;84;21023;-81
2021/09/21 13:20:46;;;;;;;10.25;7.10;;;;;;;14.91;64.04;101109.02;2075189;84;21058;-80
2021/09/21 13:23:49;;;;;;;8.05;6.28;;;;;;;14.93;64.24;101101.68;2081150;84;21103;-81
2021/09/21 13:26:51;;;;;;;8.35;6.62;;;;;;;15.03;64.48;101102.30;2081342;84;20987;-85
2021/09/21 13:29:52;;;;;;;11.50;6.95;;;;;;;15.08;64.23;101102.63;2082796;84;21075;-80
2021/09/21 13:32:55;;;;;;;9.70;6.72;;;;;;;15.06;63.76;101097.94;2083793;84;21438;-81
2021/09/21 13:35:57;;;;;;;9.55;6.90;;;;;;;15.01;63.75;101105.67;2083645;84;21123;-81
2021/09/21 13:38:58;;;;;;;8.13;6.53;;;;;;;14.98;63.71;101117.53;2084100;85;21046;-83
2021/09/21 13:42:00;;;;;;;8.43;7.08;;;;;;;14.89;63.79;101115.03;2083551;84;20976;-84
2021/09/21 13:45:02;;;;;;;10.13;5.85;;;;;;;14.88;64.18;101108.03;2084562;84;21034;-82
2021/09/21 13:48:04;;;;;;;9.35;6.12;;;;;;;14.82;63.87;101110.06;2081254;84;21080;-82
2021/09/21 13:51:06;;;;;;;8.40;5.95;;;;;;;14.77;63.93;101114.05;2085005;84;21060;-82
2021/09/21 13:54:08;;;;;;;9.15;6.50;;;;;;;14.74;64.29;101114.39;2086171;84;21024;-82
2021/09/21 13:57:09;;;;;;;8.55;6.22;;;;;;;14.71;63.85;101114.73;2085623;84;21122;-83
2021/09/21 14:00:20;;;;;;;8.60;6.10;;;;;;;14.61;63.58;101111.41;2085240;84;21040;-83
2021/09/21 14:03:22;;;;;;;13.75;6.53;;;;;;;14.53;63.74;101114.11;2088122;84;21541;-83
2021/09/21 14:06:24;;;;;;;6.30;5.05;;;;;;;14.46;63.96;101105.89;2084373;85;21086;-82
2021/09/21 14:09:28;;;;;;;5.90;4.65;;;;;;;14.42;64.07;101099.73;2083552;85;20983;-82